WIF56G ENBR-ESGG
Flight info
| Callsign | WIF56G |
|---|---|
| Flight time | 1h 28m |
| Altitude | 23000 |
| Route | TINIG DCT BOMGU Z132 LATKU L996 KELIN |
| Aircraft | DH8D/M-SDE2E3FGRY/H |
Departure
| Time | 2026-05-08 08:39 |
|---|---|
| Airport | Bergen Airport, Flesland (ENBR) |
Arrival
| Time | 2026-05-08 10:07 |
|---|---|
| Airport | Göteborg Landvetter Airport (ESGG) |
| Time | Latitude | Longitude | Altitude | Speed | Heading |
|---|---|---|---|---|---|
| 2026-05-08 08:24 | 60.29080 | 5.22875 | 180 ft | 0 kts | 45° |
| 2026-05-08 08:34 | 60.29089 | 5.22864 | 180 ft | 2 kts | 263° |
| 2026-05-08 08:34 | 60.29046 | 5.22756 | 178 ft | 11 kts | 253° |
| 2026-05-08 08:34 | 60.29040 | 5.22589 | 175 ft | 12 kts | 258° |
| 2026-05-08 08:35 | 60.29026 | 5.22413 | 172 ft | 12 kts | 274° |
| 2026-05-08 08:35 | 60.29076 | 5.22303 | 169 ft | 12 kts | 266° |
| 2026-05-08 08:35 | 60.29127 | 5.22208 | 165 ft | 13 kts | 351° |
| 2026-05-08 08:35 | 60.29248 | 5.22167 | 162 ft | 20 kts | 350° |
| 2026-05-08 08:36 | 60.29398 | 5.22117 | 158 ft | 21 kts | 351° |
| 2026-05-08 08:36 | 60.29539 | 5.22069 | 154 ft | 21 kts | 351° |
| 2026-05-08 08:36 | 60.29673 | 5.22024 | 150 ft | 12 kts | 350° |
| 2026-05-08 08:36 | 60.29718 | 5.21942 | 150 ft | 8 kts | 268° |
| 2026-05-08 08:37 | 60.29714 | 5.21882 | 148 ft | 0 kts | 261° |
| 2026-05-08 08:38 | 60.29706 | 5.21790 | 146 ft | 17 kts | 259° |
| 2026-05-08 08:38 | 60.29625 | 5.21715 | 145 ft | 19 kts | 170° |
| 2026-05-08 08:38 | 60.29206 | 5.21857 | 159 ft | 101 kts | 170° |
| 2026-05-08 08:39 | 60.28363 | 5.22115 | 384 ft | 134 kts | 172° |
| 2026-05-08 08:39 | 60.27415 | 5.22361 | 1019 ft | 142 kts | 171° |
| 2026-05-08 08:39 | 60.26457 | 5.22660 | 1776 ft | 146 kts | 169° |
| 2026-05-08 08:39 | 60.25460 | 5.22984 | 2590 ft | 148 kts | 169° |
| 2026-05-08 08:40 | 60.24466 | 5.23309 | 3347 ft | 152 kts | 169° |
| 2026-05-08 08:40 | 60.23402 | 5.23658 | 4066 ft | 160 kts | 170° |
| 2026-05-08 08:40 | 60.22307 | 5.24020 | 4822 ft | 166 kts | 171° |
| 2026-05-08 08:40 | 60.21143 | 5.24407 | 5490 ft | 178 kts | 171° |
| 2026-05-08 08:41 | 60.19841 | 5.24840 | 5810 ft | 207 kts | 171° |
| 2026-05-08 08:41 | 60.18325 | 5.25343 | 5943 ft | 238 kts | 171° |
| 2026-05-08 08:41 | 60.16660 | 5.25908 | 5847 ft | 245 kts | 171° |
| 2026-05-08 08:41 | 60.15012 | 5.26490 | 5869 ft | 234 kts | 171° |
| 2026-05-08 08:42 | 60.13463 | 5.27027 | 6320 ft | 220 kts | 171° |
| 2026-05-08 08:42 | 60.11969 | 5.27539 | 6815 ft | 217 kts | 171° |
| 2026-05-08 08:42 | 60.10594 | 5.28606 | 7293 ft | 217 kts | 143° |
| 2026-05-08 08:42 | 60.09898 | 5.31220 | 7783 ft | 222 kts | 100° |
| 2026-05-08 08:43 | 60.09985 | 5.34320 | 8303 ft | 227 kts | 86° |
| 2026-05-08 08:43 | 60.10197 | 5.37529 | 8835 ft | 240 kts | 85° |
| 2026-05-08 08:43 | 60.10442 | 5.40851 | 9362 ft | 252 kts | 83° |
| 2026-05-08 08:43 | 60.11129 | 5.44178 | 9866 ft | 266 kts | 51° |
| 2026-05-08 08:44 | 60.12656 | 5.46187 | 10378 ft | 273 kts | 14° |
| 2026-05-08 08:44 | 60.14553 | 5.46336 | 10935 ft | 276 kts | 351° |
| 2026-05-08 08:44 | 60.16467 | 5.45880 | 11469 ft | 285 kts | 350° |
| 2026-05-08 08:44 | 60.18456 | 5.45409 | 11987 ft | 292 kts | 350° |
| 2026-05-08 08:45 | 60.20491 | 5.44946 | 12498 ft | 299 kts | 350° |
| 2026-05-08 08:45 | 60.22583 | 5.44488 | 13021 ft | 305 kts | 350° |
| 2026-05-08 08:45 | 60.24694 | 5.44041 | 13532 ft | 310 kts | 350° |
| 2026-05-08 08:45 | 60.26850 | 5.43594 | 14043 ft | 315 kts | 351° |
| 2026-05-08 08:46 | 60.29019 | 5.43278 | 14547 ft | 321 kts | 358° |
| 2026-05-08 08:46 | 60.31166 | 5.44533 | 15036 ft | 329 kts | 30° |
| 2026-05-08 08:46 | 60.32799 | 5.47733 | 15570 ft | 329 kts | 53° |
| 2026-05-08 08:46 | 60.34140 | 5.51499 | 16100 ft | 332 kts | 56° |
| 2026-05-08 08:47 | 60.35468 | 5.55308 | 16616 ft | 335 kts | 56° |
| 2026-05-08 08:47 | 60.36625 | 5.59359 | 17101 ft | 335 kts | 72° |
| 2026-05-08 08:47 | 60.36813 | 5.63910 | 17594 ft | 325 kts | 104° |
| 2026-05-08 08:47 | 60.36088 | 5.68094 | 18129 ft | 319 kts | 119° |
| 2026-05-08 08:48 | 60.35171 | 5.72192 | 18648 ft | 322 kts | 120° |
| 2026-05-08 08:48 | 60.34234 | 5.76281 | 19162 ft | 324 kts | 121° |
| 2026-05-08 08:48 | 60.33279 | 5.80386 | 19682 ft | 327 kts | 121° |
| 2026-05-08 08:48 | 60.32197 | 5.84356 | 20161 ft | 323 kts | 133° |
| 2026-05-08 08:49 | 60.30604 | 5.87393 | 20686 ft | 314 kts | 146° |
| 2026-05-08 08:49 | 60.28940 | 5.90128 | 21182 ft | 305 kts | 146° |
| 2026-05-08 08:49 | 60.27318 | 5.92779 | 21671 ft | 296 kts | 147° |
| 2026-05-08 08:49 | 60.25745 | 5.95336 | 22163 ft | 287 kts | 147° |
| 2026-05-08 08:50 | 60.24226 | 5.97802 | 22651 ft | 279 kts | 147° |
| 2026-05-08 08:50 | 60.22734 | 6.00217 | 23020 ft | 276 kts | 148° |
| 2026-05-08 08:50 | 60.21240 | 6.02621 | 23121 ft | 281 kts | 148° |
| 2026-05-08 08:50 | 60.19688 | 6.05113 | 23145 ft | 290 kts | 147° |
| 2026-05-08 08:51 | 60.18106 | 6.07654 | 23147 ft | 298 kts | 147° |
| 2026-05-08 08:51 | 60.16469 | 6.10283 | 23134 ft | 305 kts | 147° |
| 2026-05-08 08:51 | 60.14801 | 6.12966 | 23117 ft | 311 kts | 147° |
| 2026-05-08 08:51 | 60.13095 | 6.15707 | 23105 ft | 316 kts | 147° |
| 2026-05-08 08:52 | 60.11367 | 6.18482 | 23093 ft | 320 kts | 147° |
| 2026-05-08 08:52 | 60.09623 | 6.21279 | 23071 ft | 324 kts | 147° |
| 2026-05-08 08:52 | 60.07864 | 6.24099 | 23065 ft | 327 kts | 147° |
| 2026-05-08 08:52 | 60.06099 | 6.26924 | 23048 ft | 329 kts | 146° |
| 2026-05-08 08:53 | 60.04318 | 6.29769 | 23043 ft | 330 kts | 146° |
| 2026-05-08 08:53 | 60.02522 | 6.32634 | 23046 ft | 331 kts | 146° |
| 2026-05-08 08:53 | 60.00893 | 6.35898 | 23021 ft | 341 kts | 129° |
| 2026-05-08 08:53 | 59.99797 | 6.40156 | 23070 ft | 345 kts | 120° |
| 2026-05-08 08:54 | 59.98814 | 6.44474 | 23086 ft | 345 kts | 119° |
| 2026-05-08 08:54 | 59.97819 | 6.48863 | 23089 ft | 346 kts | 119° |
| 2026-05-08 08:54 | 59.96841 | 6.53160 | 23098 ft | 346 kts | 119° |
| 2026-05-08 08:54 | 59.95844 | 6.57521 | 23099 ft | 346 kts | 119° |
| 2026-05-08 08:55 | 59.94841 | 6.61894 | 23102 ft | 346 kts | 119° |
| 2026-05-08 08:55 | 59.93834 | 6.66260 | 23107 ft | 346 kts | 120° |
| 2026-05-08 08:55 | 59.92829 | 6.70604 | 23113 ft | 346 kts | 120° |
| 2026-05-08 08:55 | 59.91832 | 6.74907 | 23115 ft | 346 kts | 120° |
| 2026-05-08 08:56 | 59.90817 | 6.79277 | 23117 ft | 347 kts | 120° |
| 2026-05-08 08:56 | 59.89805 | 6.83615 | 23106 ft | 347 kts | 120° |
| 2026-05-08 08:56 | 59.88789 | 6.87964 | 23096 ft | 348 kts | 120° |
| 2026-05-08 08:56 | 59.87777 | 6.92286 | 23086 ft | 348 kts | 120° |
| 2026-05-08 08:57 | 59.86760 | 6.96620 | 23076 ft | 348 kts | 120° |
| 2026-05-08 08:57 | 59.85736 | 7.00978 | 23061 ft | 349 kts | 120° |
| 2026-05-08 08:57 | 59.84713 | 7.05319 | 23059 ft | 349 kts | 120° |
| 2026-05-08 08:57 | 59.83683 | 7.09685 | 23061 ft | 348 kts | 120° |
| 2026-05-08 08:58 | 59.82649 | 7.14052 | 23067 ft | 348 kts | 120° |
| 2026-05-08 08:58 | 59.81626 | 7.18368 | 23069 ft | 348 kts | 120° |
| 2026-05-08 08:58 | 59.80593 | 7.22715 | 23074 ft | 348 kts | 120° |
| 2026-05-08 08:58 | 59.79564 | 7.27038 | 23080 ft | 347 kts | 119° |
| 2026-05-08 08:59 | 59.78546 | 7.31309 | 23087 ft | 347 kts | 120° |
| 2026-05-08 08:59 | 59.77511 | 7.35638 | 23093 ft | 347 kts | 119° |
| 2026-05-08 08:59 | 59.76484 | 7.39924 | 23100 ft | 347 kts | 119° |
| 2026-05-08 08:59 | 59.75445 | 7.44254 | 23106 ft | 347 kts | 119° |
| 2026-05-08 09:00 | 59.74417 | 7.48528 | 23114 ft | 347 kts | 119° |
| 2026-05-08 09:00 | 59.73380 | 7.52834 | 23118 ft | 347 kts | 119° |
| 2026-05-08 09:00 | 59.72341 | 7.57138 | 23119 ft | 347 kts | 119° |
| 2026-05-08 09:00 | 59.71301 | 7.61437 | 23117 ft | 347 kts | 119° |
| 2026-05-08 09:01 | 59.70264 | 7.65713 | 23117 ft | 347 kts | 120° |
| 2026-05-08 09:01 | 59.69221 | 7.70008 | 23123 ft | 347 kts | 120° |
| 2026-05-08 09:01 | 59.68180 | 7.74290 | 23125 ft | 346 kts | 120° |
| 2026-05-08 09:01 | 59.67142 | 7.78546 | 23129 ft | 346 kts | 120° |
| 2026-05-08 09:02 | 59.66093 | 7.82839 | 23131 ft | 346 kts | 120° |
| 2026-05-08 09:02 | 59.65058 | 7.87065 | 23144 ft | 345 kts | 120° |
| 2026-05-08 09:02 | 59.64008 | 7.91358 | 23150 ft | 345 kts | 121° |
| 2026-05-08 09:02 | 59.62967 | 7.95586 | 23142 ft | 345 kts | 120° |
| 2026-05-08 09:03 | 59.61914 | 7.99867 | 23146 ft | 346 kts | 120° |
| 2026-05-08 09:03 | 59.60870 | 8.04098 | 23149 ft | 346 kts | 120° |
| 2026-05-08 09:03 | 59.59816 | 8.08363 | 23152 ft | 346 kts | 120° |
| 2026-05-08 09:03 | 59.58772 | 8.12580 | 23156 ft | 345 kts | 120° |
| 2026-05-08 09:04 | 59.57724 | 8.16805 | 23161 ft | 345 kts | 120° |
| 2026-05-08 09:04 | 59.56668 | 8.21054 | 23161 ft | 345 kts | 120° |
| 2026-05-08 09:04 | 59.55614 | 8.25287 | 23162 ft | 345 kts | 120° |
| 2026-05-08 09:04 | 59.54557 | 8.29524 | 23163 ft | 345 kts | 120° |
| 2026-05-08 09:05 | 59.53498 | 8.33761 | 23159 ft | 345 kts | 120° |
| 2026-05-08 09:05 | 59.52449 | 8.37951 | 23158 ft | 345 kts | 120° |
| 2026-05-08 09:05 | 59.51383 | 8.42195 | 23154 ft | 345 kts | 120° |
| 2026-05-08 09:05 | 59.50316 | 8.46437 | 23148 ft | 345 kts | 120° |
| 2026-05-08 09:06 | 59.49262 | 8.50625 | 23141 ft | 345 kts | 119° |
| 2026-05-08 09:06 | 59.48188 | 8.54882 | 23151 ft | 345 kts | 119° |
| 2026-05-08 09:06 | 59.47126 | 8.59081 | 23142 ft | 345 kts | 120° |
| 2026-05-08 09:06 | 59.46069 | 8.63247 | 23142 ft | 344 kts | 119° |
| 2026-05-08 09:07 | 59.45001 | 8.67455 | 23145 ft | 344 kts | 120° |
| 2026-05-08 09:07 | 59.43935 | 8.71649 | 23146 ft | 344 kts | 120° |
| 2026-05-08 09:07 | 59.42872 | 8.75820 | 23150 ft | 343 kts | 120° |
| 2026-05-08 09:07 | 59.41798 | 8.80027 | 23149 ft | 343 kts | 120° |
| 2026-05-08 09:08 | 59.40736 | 8.84183 | 23157 ft | 342 kts | 120° |
| 2026-05-08 09:08 | 59.39684 | 8.88289 | 23162 ft | 341 kts | 120° |
| 2026-05-08 09:08 | 59.38618 | 8.92441 | 23169 ft | 341 kts | 120° |
| 2026-05-08 09:08 | 59.37547 | 8.96601 | 23171 ft | 341 kts | 120° |
| 2026-05-08 09:09 | 59.36482 | 9.00734 | 23173 ft | 341 kts | 120° |
| 2026-05-08 09:09 | 59.35418 | 9.04849 | 23175 ft | 341 kts | 120° |
| 2026-05-08 09:09 | 59.34357 | 9.08954 | 23178 ft | 341 kts | 120° |
| 2026-05-08 09:09 | 59.33284 | 9.13099 | 23187 ft | 341 kts | 120° |
| 2026-05-08 09:10 | 59.32209 | 9.17240 | 23195 ft | 341 kts | 120° |
| 2026-05-08 09:10 | 59.31148 | 9.21320 | 23196 ft | 341 kts | 120° |
| 2026-05-08 09:10 | 59.30068 | 9.25466 | 23207 ft | 341 kts | 120° |
| 2026-05-08 09:10 | 59.28996 | 9.29571 | 23207 ft | 341 kts | 120° |
| 2026-05-08 09:11 | 59.27922 | 9.33681 | 23215 ft | 341 kts | 120° |
| 2026-05-08 09:11 | 59.26843 | 9.37798 | 23210 ft | 342 kts | 120° |
| 2026-05-08 09:11 | 59.25763 | 9.41914 | 23213 ft | 341 kts | 120° |
| 2026-05-08 09:11 | 59.24675 | 9.46051 | 23212 ft | 342 kts | 120° |
| 2026-05-08 09:12 | 59.23600 | 9.50129 | 23212 ft | 342 kts | 120° |
| 2026-05-08 09:12 | 59.22512 | 9.54253 | 23221 ft | 342 kts | 120° |
| 2026-05-08 09:12 | 59.21421 | 9.58377 | 23216 ft | 342 kts | 120° |
| 2026-05-08 09:12 | 59.20333 | 9.62487 | 23212 ft | 342 kts | 120° |
| 2026-05-08 09:13 | 59.19242 | 9.66598 | 23221 ft | 341 kts | 120° |
| 2026-05-08 09:13 | 59.18152 | 9.70694 | 23223 ft | 341 kts | 120° |
| 2026-05-08 09:13 | 59.17077 | 9.74740 | 23219 ft | 342 kts | 120° |
| 2026-05-08 09:13 | 59.15985 | 9.78828 | 23228 ft | 342 kts | 120° |
| 2026-05-08 09:14 | 59.14880 | 9.82963 | 23227 ft | 342 kts | 120° |
| 2026-05-08 09:14 | 59.13787 | 9.87044 | 23234 ft | 342 kts | 120° |
| 2026-05-08 09:14 | 59.12687 | 9.91145 | 23225 ft | 342 kts | 120° |
| 2026-05-08 09:14 | 59.11598 | 9.95197 | 23233 ft | 342 kts | 120° |
| 2026-05-08 09:15 | 59.10491 | 9.99306 | 23233 ft | 342 kts | 120° |
| 2026-05-08 09:15 | 59.09392 | 10.03382 | 23226 ft | 341 kts | 120° |
| 2026-05-08 09:15 | 59.08286 | 10.07474 | 23244 ft | 341 kts | 120° |
| 2026-05-08 09:15 | 59.07200 | 10.11487 | 23228 ft | 341 kts | 120° |
| 2026-05-08 09:16 | 59.06084 | 10.15603 | 23239 ft | 341 kts | 120° |
| 2026-05-08 09:16 | 59.04983 | 10.19655 | 23242 ft | 341 kts | 120° |
| 2026-05-08 09:16 | 59.03884 | 10.23691 | 23240 ft | 342 kts | 120° |
| 2026-05-08 09:16 | 59.02769 | 10.27781 | 23249 ft | 341 kts | 120° |
| 2026-05-08 09:17 | 59.01657 | 10.31851 | 23257 ft | 342 kts | 120° |
| 2026-05-08 09:17 | 59.00551 | 10.35893 | 23259 ft | 342 kts | 120° |
| 2026-05-08 09:17 | 58.99433 | 10.39971 | 23257 ft | 342 kts | 120° |
| 2026-05-08 09:17 | 58.98326 | 10.44003 | 23257 ft | 342 kts | 120° |
| 2026-05-08 09:18 | 58.97222 | 10.48018 | 23258 ft | 342 kts | 120° |
| 2026-05-08 09:18 | 58.96101 | 10.52083 | 23258 ft | 342 kts | 120° |
| 2026-05-08 09:18 | 58.94984 | 10.56128 | 23262 ft | 342 kts | 120° |
| 2026-05-08 09:18 | 58.93860 | 10.60192 | 23258 ft | 343 kts | 120° |
| 2026-05-08 09:19 | 58.92741 | 10.64232 | 23255 ft | 343 kts | 120° |
| 2026-05-08 09:19 | 58.91606 | 10.68321 | 23259 ft | 343 kts | 121° |
| 2026-05-08 09:19 | 58.90489 | 10.72338 | 23255 ft | 343 kts | 121° |
| 2026-05-08 09:19 | 58.89359 | 10.76409 | 23258 ft | 343 kts | 121° |
| 2026-05-08 09:20 | 58.88231 | 10.80472 | 23256 ft | 343 kts | 121° |
| 2026-05-08 09:20 | 58.87117 | 10.84468 | 23257 ft | 343 kts | 121° |
| 2026-05-08 09:20 | 58.85978 | 10.88539 | 23256 ft | 343 kts | 121° |
| 2026-05-08 09:20 | 58.84843 | 10.92609 | 23258 ft | 343 kts | 121° |
| 2026-05-08 09:21 | 58.83723 | 10.96626 | 23256 ft | 343 kts | 121° |
| 2026-05-08 09:21 | 58.82594 | 11.00661 | 23252 ft | 344 kts | 121° |
| 2026-05-08 09:22 | 58.75768 | 11.24891 | 23247 ft | 344 kts | 121° |
| 2026-05-08 09:23 | 58.74635 | 11.28886 | 23239 ft | 344 kts | 121° |
| 2026-05-08 09:23 | 58.73496 | 11.32898 | 23249 ft | 343 kts | 121° |
| 2026-05-08 09:23 | 58.72348 | 11.36934 | 23238 ft | 343 kts | 121° |
| 2026-05-08 09:23 | 58.71208 | 11.40932 | 23240 ft | 343 kts | 121° |
| 2026-05-08 09:24 | 58.70054 | 11.44974 | 23241 ft | 342 kts | 121° |
| 2026-05-08 09:24 | 58.68903 | 11.49000 | 23243 ft | 342 kts | 121° |
| 2026-05-08 09:24 | 58.67797 | 11.52996 | 23243 ft | 342 kts | 119° |
| 2026-05-08 09:24 | 58.66703 | 11.57024 | 23235 ft | 342 kts | 119° |
| 2026-05-08 09:25 | 58.65584 | 11.61130 | 22870 ft | 352 kts | 119° |
| 2026-05-08 09:25 | 58.64456 | 11.65262 | 22419 ft | 350 kts | 120° |
| 2026-05-08 09:25 | 58.63334 | 11.69369 | 21973 ft | 347 kts | 120° |
| 2026-05-08 09:25 | 58.61938 | 11.73032 | 21508 ft | 336 kts | 137° |
| 2026-05-08 09:26 | 58.60170 | 11.75784 | 21076 ft | 327 kts | 145° |
| 2026-05-08 09:26 | 58.58334 | 11.78328 | 20629 ft | 322 kts | 146° |
| 2026-05-08 09:26 | 58.56538 | 11.80767 | 20170 ft | 318 kts | 146° |
| 2026-05-08 09:26 | 58.54742 | 11.83195 | 19739 ft | 315 kts | 146° |
| 2026-05-08 09:27 | 58.52961 | 11.85599 | 19293 ft | 312 kts | 146° |
| 2026-05-08 09:27 | 58.51204 | 11.87966 | 18847 ft | 310 kts | 146° |
| 2026-05-08 09:27 | 58.49467 | 11.90303 | 18403 ft | 307 kts | 146° |
| 2026-05-08 09:27 | 58.47734 | 11.92628 | 17971 ft | 306 kts | 146° |
| 2026-05-08 09:28 | 58.46006 | 11.94948 | 17546 ft | 304 kts | 146° |
| 2026-05-08 09:28 | 58.44276 | 11.97269 | 17123 ft | 302 kts | 146° |
| 2026-05-08 09:28 | 58.42582 | 11.99535 | 16686 ft | 301 kts | 146° |
| 2026-05-08 09:28 | 58.40874 | 12.01818 | 16272 ft | 300 kts | 146° |
| 2026-05-08 09:29 | 58.39172 | 12.04093 | 15854 ft | 298 kts | 146° |
| 2026-05-08 09:29 | 58.37477 | 12.06352 | 15423 ft | 297 kts | 146° |
| 2026-05-08 09:29 | 58.35795 | 12.08592 | 14989 ft | 295 kts | 146° |
| 2026-05-08 09:29 | 58.34143 | 12.10788 | 14563 ft | 294 kts | 146° |
| 2026-05-08 09:30 | 58.32464 | 12.13009 | 14130 ft | 293 kts | 146° |
| 2026-05-08 09:30 | 58.30800 | 12.15204 | 13700 ft | 292 kts | 146° |
| 2026-05-08 09:30 | 58.29149 | 12.17380 | 13272 ft | 290 kts | 146° |
| 2026-05-08 09:30 | 58.27488 | 12.19561 | 12839 ft | 289 kts | 146° |
| 2026-05-08 09:31 | 58.25839 | 12.21721 | 12407 ft | 288 kts | 146° |
| 2026-05-08 09:31 | 58.24204 | 12.23863 | 11978 ft | 287 kts | 146° |
| 2026-05-08 09:31 | 58.22555 | 12.26017 | 11544 ft | 286 kts | 146° |
| 2026-05-08 09:31 | 58.20928 | 12.28139 | 11114 ft | 285 kts | 146° |
| 2026-05-08 09:32 | 58.19320 | 12.30233 | 10688 ft | 283 kts | 146° |
| 2026-05-08 09:32 | 58.17692 | 12.32348 | 10350 ft | 278 kts | 146° |
| 2026-05-08 09:32 | 58.16146 | 12.34353 | 10261 ft | 266 kts | 146° |
| 2026-05-08 09:32 | 58.14655 | 12.36285 | 10237 ft | 253 kts | 146° |
| 2026-05-08 09:33 | 58.13251 | 12.38105 | 10230 ft | 241 kts | 146° |
| 2026-05-08 09:33 | 58.11883 | 12.39875 | 10244 ft | 241 kts | 146° |
| 2026-05-08 09:33 | 58.10469 | 12.41691 | 10238 ft | 248 kts | 146° |
| 2026-05-08 09:33 | 58.09021 | 12.43548 | 10239 ft | 255 kts | 146° |
| 2026-05-08 09:34 | 58.07558 | 12.45425 | 10240 ft | 260 kts | 146° |
| 2026-05-08 09:34 | 58.06034 | 12.47378 | 10241 ft | 265 kts | 146° |
| 2026-05-08 09:34 | 58.04514 | 12.49324 | 10241 ft | 268 kts | 146° |
| 2026-05-08 09:34 | 58.02971 | 12.51295 | 10239 ft | 271 kts | 146° |
| 2026-05-08 09:35 | 58.01390 | 12.53308 | 10238 ft | 273 kts | 146° |
| 2026-05-08 09:35 | 57.99824 | 12.55295 | 10239 ft | 275 kts | 146° |
| 2026-05-08 09:35 | 57.98232 | 12.57311 | 10242 ft | 278 kts | 146° |
| 2026-05-08 09:35 | 57.96621 | 12.59346 | 10235 ft | 280 kts | 146° |
| 2026-05-08 09:36 | 57.94989 | 12.61404 | 10240 ft | 282 kts | 146° |
| 2026-05-08 09:36 | 57.93371 | 12.63448 | 10231 ft | 283 kts | 146° |
| 2026-05-08 09:36 | 57.91724 | 12.65526 | 10234 ft | 284 kts | 147° |
| 2026-05-08 09:36 | 57.90100 | 12.67576 | 10244 ft | 285 kts | 147° |
| 2026-05-08 09:37 | 57.88459 | 12.69645 | 10240 ft | 285 kts | 147° |
| 2026-05-08 09:37 | 57.86807 | 12.71728 | 10241 ft | 286 kts | 147° |
| 2026-05-08 09:37 | 57.85159 | 12.73807 | 10240 ft | 286 kts | 146° |
| 2026-05-08 09:37 | 57.83512 | 12.75881 | 10239 ft | 286 kts | 146° |
| 2026-05-08 09:38 | 57.81859 | 12.77955 | 10244 ft | 287 kts | 146° |
| 2026-05-08 09:38 | 57.80192 | 12.80036 | 10239 ft | 287 kts | 146° |
| 2026-05-08 09:38 | 57.78535 | 12.82099 | 10246 ft | 288 kts | 146° |
| 2026-05-08 09:38 | 57.76869 | 12.84171 | 10238 ft | 288 kts | 146° |
| 2026-05-08 09:39 | 57.75210 | 12.86230 | 10239 ft | 288 kts | 146° |
| 2026-05-08 09:39 | 57.73542 | 12.88296 | 10238 ft | 288 kts | 146° |
| 2026-05-08 09:39 | 57.71870 | 12.90361 | 10240 ft | 288 kts | 146° |
| 2026-05-08 09:39 | 57.70186 | 12.92439 | 10237 ft | 288 kts | 146° |
| 2026-05-08 09:40 | 57.68520 | 12.94486 | 10232 ft | 288 kts | 146° |
| 2026-05-08 09:40 | 57.66857 | 12.96526 | 10235 ft | 288 kts | 146° |
| 2026-05-08 09:40 | 57.65203 | 12.98556 | 10224 ft | 278 kts | 146° |
| 2026-05-08 09:40 | 57.63641 | 13.00485 | 10218 ft | 262 kts | 146° |
| 2026-05-08 09:41 | 57.62162 | 13.02318 | 10221 ft | 252 kts | 146° |
| 2026-05-08 09:41 | 57.60701 | 13.04130 | 10225 ft | 247 kts | 146° |
| 2026-05-08 09:41 | 57.59291 | 13.05880 | 10229 ft | 243 kts | 146° |
| 2026-05-08 09:41 | 57.57890 | 13.07613 | 10230 ft | 239 kts | 146° |
| 2026-05-08 09:42 | 57.56518 | 13.09299 | 10237 ft | 239 kts | 146° |
| 2026-05-08 09:42 | 57.55129 | 13.10996 | 10239 ft | 242 kts | 146° |
| 2026-05-08 09:42 | 57.53692 | 13.12744 | 10240 ft | 245 kts | 146° |
| 2026-05-08 09:42 | 57.52272 | 13.14468 | 10239 ft | 248 kts | 146° |
| 2026-05-08 09:43 | 57.50823 | 13.16270 | 10235 ft | 250 kts | 142° |
| 2026-05-08 09:43 | 57.49755 | 13.18751 | 10238 ft | 250 kts | 114° |
| 2026-05-08 09:43 | 57.49455 | 13.21929 | 10239 ft | 252 kts | 86° |
| 2026-05-08 09:43 | 57.49996 | 13.24983 | 10243 ft | 255 kts | 59° |
| 2026-05-08 09:44 | 57.51268 | 13.27271 | 10243 ft | 259 kts | 31° |
| 2026-05-08 09:44 | 57.52982 | 13.28224 | 10242 ft | 262 kts | 4° |
| 2026-05-08 09:44 | 57.54775 | 13.27638 | 10246 ft | 265 kts | 340° |
| 2026-05-08 09:44 | 57.56461 | 13.26257 | 10242 ft | 267 kts | 336° |
| 2026-05-08 09:45 | 57.58141 | 13.24830 | 10241 ft | 268 kts | 336° |
| 2026-05-08 09:45 | 57.59842 | 13.23379 | 10242 ft | 269 kts | 336° |
| 2026-05-08 09:45 | 57.61542 | 13.21927 | 10241 ft | 270 kts | 336° |
| 2026-05-08 09:45 | 57.63239 | 13.20478 | 10239 ft | 271 kts | 336° |
| 2026-05-08 09:46 | 57.64958 | 13.19011 | 10240 ft | 271 kts | 336° |
| 2026-05-08 09:46 | 57.66683 | 13.17533 | 10237 ft | 272 kts | 336° |
| 2026-05-08 09:46 | 57.68377 | 13.16083 | 10234 ft | 272 kts | 336° |
| 2026-05-08 09:46 | 57.70116 | 13.14598 | 10233 ft | 272 kts | 336° |
| 2026-05-08 09:47 | 57.71827 | 13.13141 | 10232 ft | 273 kts | 336° |
| 2026-05-08 09:47 | 57.73560 | 13.11665 | 10232 ft | 273 kts | 336° |
| 2026-05-08 09:47 | 57.75286 | 13.10197 | 10229 ft | 273 kts | 336° |
| 2026-05-08 09:47 | 57.77000 | 13.08745 | 10226 ft | 273 kts | 336° |
| 2026-05-08 09:48 | 57.78739 | 13.07279 | 10227 ft | 274 kts | 336° |
| 2026-05-08 09:48 | 57.80474 | 13.05821 | 10223 ft | 274 kts | 335° |
| 2026-05-08 09:48 | 57.82201 | 13.04378 | 10222 ft | 274 kts | 336° |
| 2026-05-08 09:48 | 57.83953 | 13.02915 | 10226 ft | 274 kts | 336° |
| 2026-05-08 09:49 | 57.85689 | 13.01461 | 10226 ft | 274 kts | 336° |
| 2026-05-08 09:49 | 57.87419 | 13.00005 | 10232 ft | 274 kts | 336° |
| 2026-05-08 09:49 | 57.89147 | 12.98540 | 10234 ft | 273 kts | 336° |
| 2026-05-08 09:49 | 57.90877 | 12.97072 | 10237 ft | 273 kts | 336° |
| 2026-05-08 09:50 | 57.92610 | 12.95605 | 10233 ft | 274 kts | 336° |
| 2026-05-08 09:50 | 57.94338 | 12.94142 | 10231 ft | 273 kts | 336° |
| 2026-05-08 09:50 | 57.96053 | 12.92690 | 10232 ft | 273 kts | 336° |
| 2026-05-08 09:50 | 57.97785 | 12.91223 | 10231 ft | 273 kts | 336° |
| 2026-05-08 09:51 | 57.99531 | 12.89743 | 10237 ft | 273 kts | 336° |
| 2026-05-08 09:51 | 58.01244 | 12.88292 | 10231 ft | 273 kts | 336° |
| 2026-05-08 09:51 | 58.02970 | 12.86831 | 10237 ft | 273 kts | 336° |
| 2026-05-08 09:51 | 58.04716 | 12.85355 | 10237 ft | 273 kts | 336° |
| 2026-05-08 09:52 | 58.06427 | 12.83910 | 10238 ft | 274 kts | 336° |
| 2026-05-08 09:52 | 58.08164 | 12.82445 | 10247 ft | 274 kts | 336° |
| 2026-05-08 09:52 | 58.09904 | 12.80985 | 10244 ft | 275 kts | 336° |
| 2026-05-08 09:52 | 58.11660 | 12.79512 | 10244 ft | 275 kts | 336° |
| 2026-05-08 09:53 | 58.13409 | 12.78038 | 10236 ft | 275 kts | 336° |
| 2026-05-08 09:53 | 58.15143 | 12.76575 | 10246 ft | 275 kts | 336° |
| 2026-05-08 09:53 | 58.16873 | 12.75114 | 10252 ft | 275 kts | 336° |
| 2026-05-08 09:53 | 58.18626 | 12.73636 | 10256 ft | 275 kts | 336° |
| 2026-05-08 09:54 | 58.20365 | 12.72168 | 10249 ft | 275 kts | 336° |
| 2026-05-08 09:54 | 58.22079 | 12.70573 | 10235 ft | 275 kts | 327° |
| 2026-05-08 09:54 | 58.23415 | 12.67962 | 10029 ft | 281 kts | 301° |
| 2026-05-08 09:54 | 58.24069 | 12.64473 | 9620 ft | 290 kts | 277° |
| 2026-05-08 09:55 | 58.23913 | 12.60651 | 9199 ft | 296 kts | 253° |
| 2026-05-08 09:55 | 58.22966 | 12.57252 | 8770 ft | 290 kts | 230° |
| 2026-05-08 09:55 | 58.21417 | 12.54964 | 8321 ft | 275 kts | 205° |
| 2026-05-08 09:55 | 58.19651 | 12.54082 | 7897 ft | 262 kts | 188° |
| 2026-05-08 09:56 | 58.17870 | 12.53643 | 7461 ft | 254 kts | 187° |
| 2026-05-08 09:56 | 58.16140 | 12.53230 | 7015 ft | 246 kts | 186° |
| 2026-05-08 09:56 | 58.14484 | 12.52834 | 6582 ft | 240 kts | 186° |
| 2026-05-08 09:56 | 58.12843 | 12.52435 | 6140 ft | 235 kts | 186° |
| 2026-05-08 09:57 | 58.09667 | 12.51655 | 5271 ft | 227 kts | 186° |
| 2026-05-08 09:57 | 58.08141 | 12.51274 | 4843 ft | 223 kts | 186° |
| 2026-05-08 09:57 | 58.06618 | 12.50894 | 4415 ft | 219 kts | 186° |
| 2026-05-08 09:58 | 58.05122 | 12.50522 | 3988 ft | 216 kts | 186° |
| 2026-05-08 09:58 | 58.03648 | 12.50162 | 3562 ft | 213 kts | 186° |
| 2026-05-08 09:58 | 58.02192 | 12.49814 | 3134 ft | 210 kts | 186° |
| 2026-05-08 09:58 | 58.00796 | 12.49475 | 2879 ft | 197 kts | 186° |
| 2026-05-08 09:59 | 57.99505 | 12.49149 | 2775 ft | 175 kts | 186° |
| 2026-05-08 09:59 | 57.98354 | 12.48843 | 2737 ft | 160 kts | 186° |
| 2026-05-08 09:59 | 57.97303 | 12.48552 | 2715 ft | 144 kts | 187° |
| 2026-05-08 09:59 | 57.96358 | 12.48281 | 2605 ft | 135 kts | 187° |
| 2026-05-08 10:00 | 57.95398 | 12.48004 | 2274 ft | 145 kts | 187° |
| 2026-05-08 10:00 | 57.94432 | 12.47734 | 2299 ft | 135 kts | 187° |
| 2026-05-08 10:00 | 57.93515 | 12.47482 | 2199 ft | 138 kts | 187° |
| 2026-05-08 10:00 | 57.92551 | 12.47224 | 2082 ft | 139 kts | 187° |
| 2026-05-08 10:01 | 57.91598 | 12.46973 | 2162 ft | 137 kts | 186° |
| 2026-05-08 10:01 | 57.90604 | 12.46696 | 2529 ft | 155 kts | 188° |
| 2026-05-08 10:01 | 57.89489 | 12.46410 | 2635 ft | 166 kts | 187° |
| 2026-05-08 10:01 | 57.88296 | 12.46105 | 2701 ft | 176 kts | 186° |
| 2026-05-08 10:02 | 57.87113 | 12.45798 | 2718 ft | 171 kts | 187° |
| 2026-05-08 10:02 | 57.85945 | 12.45492 | 2723 ft | 166 kts | 186° |
| 2026-05-08 10:02 | 57.84793 | 12.44982 | 2744 ft | 177 kts | 202° |
| 2026-05-08 10:02 | 57.83694 | 12.43859 | 2751 ft | 184 kts | 206° |
| 2026-05-08 10:03 | 57.82525 | 12.42806 | 2747 ft | 187 kts | 203° |
| 2026-05-08 10:03 | 57.81367 | 12.41771 | 2739 ft | 185 kts | 204° |
| 2026-05-08 10:03 | 57.80224 | 12.40713 | 2737 ft | 181 kts | 204° |
| 2026-05-08 10:03 | 57.79108 | 12.39694 | 2740 ft | 176 kts | 204° |
| 2026-05-08 10:04 | 57.78022 | 12.38698 | 2735 ft | 172 kts | 204° |
| 2026-05-08 10:04 | 57.76934 | 12.37701 | 2594 ft | 178 kts | 204° |
| 2026-05-08 10:04 | 57.75831 | 12.36695 | 2353 ft | 170 kts | 204° |
| 2026-05-08 10:04 | 57.74835 | 12.35791 | 2108 ft | 149 kts | 204° |
| 2026-05-08 10:05 | 57.73949 | 12.34977 | 1882 ft | 141 kts | 204° |
| 2026-05-08 10:05 | 57.73064 | 12.34149 | 1723 ft | 144 kts | 204° |
| 2026-05-08 10:05 | 57.72147 | 12.33311 | 1528 ft | 151 kts | 203° |
| 2026-05-08 10:05 | 57.71229 | 12.32478 | 1324 ft | 141 kts | 203° |
| 2026-05-08 10:06 | 57.70401 | 12.31724 | 1163 ft | 128 kts | 203° |
| 2026-05-08 10:06 | 57.69606 | 12.30991 | 994 ft | 132 kts | 204° |
| 2026-05-08 10:06 | 57.68766 | 12.30229 | 816 ft | 138 kts | 204° |
| 2026-05-08 10:06 | 57.67884 | 12.29430 | 627 ft | 145 kts | 205° |
| 2026-05-08 10:07 | 57.67011 | 12.28643 | 507 ft | 125 kts | 205° |
| 2026-05-08 10:07 | 57.66556 | 12.28231 | 510 ft | 46 kts | 205° |
| 2026-05-08 10:07 | 57.66312 | 12.28011 | 508 ft | 33 kts | 202° |
| 2026-05-08 10:07 | 57.66150 | 12.27956 | 509 ft | 17 kts | 140° |
| 2026-05-08 10:08 | 57.66108 | 12.28077 | 508 ft | 8 kts | 117° |
| 2026-05-08 10:08 | 57.66098 | 12.28111 | 508 ft | 6 kts | 114° |
| 2026-05-08 10:08 | 57.66123 | 12.28180 | 509 ft | 9 kts | 26° |
| 2026-05-08 10:08 | 57.66224 | 12.28272 | 508 ft | 18 kts | 25° |
| 2026-05-08 10:09 | 57.66309 | 12.28400 | 510 ft | 13 kts | 90° |
| 2026-05-08 10:09 | 57.66278 | 12.28530 | 514 ft | 13 kts | 116° |
| 2026-05-08 10:09 | 57.66244 | 12.28678 | 515 ft | 10 kts | 97° |
| 2026-05-08 10:09 | 57.66242 | 12.28794 | 516 ft | 7 kts | 116° |
| 2026-05-08 10:10 | 57.66222 | 12.28868 | 517 ft | 2 kts | 115° |
| 2026-05-08 10:10 | 57.66221 | 12.28873 | 517 ft | 0 kts | 115° |